Startpagina
METAR-TAF:

METAR-TAF

Vliegvelden :

Internationale luchthaven van Bahrein

Bahrein, Bahrein

breedte: 26-16N, lengte: 050-39E, hoogte: 2 m

Actueel weer

Dit bericht is 33 minuten geleden gemaakt, om 09:00 UTC
Wind 21 kt uit het westnoordwesten
Temperatuur 22°C
Vochtigheid 43%
Druk 1017 hPa
Zicht 10 km of meer
Verspreide wolken op 3000 ft

METAR: OBBI 210900Z 30021KT 9999 SCT030 22/09 Q1017 NOSIG

Tijdstip: 12:33 (09:33 UTC)

Verwachting

Dit bericht is 4 uur en het 33 minuten geleden gemaakt, om 05:00 UTC
Verwachting geldig van 21 om 06 UTC tot 22 om 12 UTC
Wind 18 kt uit het noordnoordwesten met uitschieters tot 28 kt
Zicht 10 km of meer
Weinig wolken op 3000 ft
Wijzigt naar
van 21 om 16 UTC tot 21 om 18 UTC
Wind 12 kt uit het noordnoordwesten

TAF: OBBI 210500Z 2106/2212 33018G28KT 9999 FEW030 BECMG 2116/2118 33012KT

Waarnemingen en weersverwachtingen van meer dan 4000 vliegvelden (METAR en TAF).

De beschikbare stations zijn de gele en rode punten op de kaart.

Ga met uw muis naar het station om de naam te zien.

Klik dan om waarnemingen en weersverwachtingen te zien.

kaart wijzigen: klik op de groene knoppen met een zwart kruis om in te zoomen, op de groene knop met een streepje om uit te zoomen of op de groene pijlen voor aangrenzende kaarten.


METAR-TAF: